Time;durP1;ratioP1;P1;durP2;ratioP2;P2;SDS_P1;SDS_P2;PMS_P1;PMS_P2;Temp;Humidity;BMP_temperature;BMP_pressure;BME280_temperature;BME280_humidity;BME280_pressure;Samples;Min_cycle;Max_cycle;Signal;HPM_P1;HPM_P2
2021/09/29 00:00:50;;;;;;;4.82;3.40;;;;;;;27.01;25.44;98739.34;5091197;28;20028;-83
2021/09/29 00:03:16;;;;;;;4.68;2.58;;;;;;;26.89;25.33;98742.84;5108594;28;20104;-83
2021/09/29 00:05:43;;;;;;;4.85;2.45;;;;;;;27.65;24.01;98735.78;5095302;28;20032;-83
2021/09/29 00:08:10;;;;;;;5.07;3.08;;;;;;;27.57;24.35;98740.00;5093133;28;20051;-83
2021/09/29 00:10:37;;;;;;;4.30;2.78;;;;;;;27.66;23.93;98733.72;5097612;28;20028;-83
2021/09/29 00:13:04;;;;;;;3.35;2.45;;;;;;;28.01;23.81;98738.44;5091085;28;20040;-83
2021/09/29 00:15:30;;;;;;;3.55;2.70;;;;;;;28.23;22.82;98739.44;5078583;28;20028;-85
2021/09/29 00:17:56;;;;;;;2.92;2.17;;;;;;;28.29;22.64;98739.69;5099441;28;20073;-85
2021/09/29 00:20:22;;;;;;;3.45;2.53;;;;;;;28.29;22.45;98739.69;5097235;28;20063;-84
2021/09/29 00:22:48;;;;;;;4.18;2.42;;;;;;;28.24;22.71;98740.25;5097521;28;20535;-84
2021/09/29 00:25:16;;;;;;;3.40;2.38;;;;;;;28.30;22.46;98732.81;5095984;28;20028;-84
2021/09/29 00:27:43;;;;;;;3.83;2.40;;;;;;;28.13;22.29;98736.91;5097200;28;20089;-84
2021/09/29 00:30:11;;;;;;;6.15;2.38;;;;;;;28.25;22.19;98744.66;5082762;28;20036;-86
2021/09/29 00:32:40;;;;;;;4.93;2.75;;;;;;;28.31;21.81;98740.06;5094471;28;20040;-85
2021/09/29 00:35:09;;;;;;;2.97;2.13;;;;;;;28.34;21.81;98731.47;5096204;28;20514;-84
2021/09/29 00:37:35;;;;;;;4.65;2.15;;;;;;;28.27;21.79;98734.50;5096514;28;20028;-84
2021/09/29 00:40:02;;;;;;;3.88;2.60;;;;;;;28.19;21.33;98729.50;5095345;28;20035;-84
2021/09/29 00:42:28;;;;;;;3.28;2.05;;;;;;;28.00;21.47;98726.38;5128458;27;20552;-84
2021/09/29 00:44:54;;;;;;;3.90;2.33;;;;;;;27.88;21.77;98731.94;5083582;28;20391;-84
2021/09/29 00:47:20;;;;;;;2.60;1.95;;;;;;;27.68;21.85;98725.63;5092435;28;20170;-84
2021/09/29 00:49:47;;;;;;;3.90;2.22;;;;;;;27.66;22.26;98726.06;5092221;28;20031;-84
2021/09/29 00:52:13;;;;;;;3.25;2.30;;;;;;;27.61;22.52;98729.41;5093830;28;20040;-84
2021/09/29 00:54:40;;;;;;;6.22;3.33;;;;;;;27.76;22.65;98732.66;5094232;28;20252;-85
2021/09/29 00:57:07;;;;;;;4.03;2.55;;;;;;;27.81;22.59;98726.47;5099259;28;20047;-84
2021/09/29 00:59:33;;;;;;;6.45;3.63;;;;;;;27.83;22.75;98716.34;5099623;28;20206;-84
2021/09/29 01:01:59;;;;;;;4.65;2.67;;;;;;;27.91;21.92;98719.75;5109289;28;20487;-84
2021/09/29 01:04:27;;;;;;;5.43;3.00;;;;;;;27.78;22.19;98716.88;5090097;28;20044;-83
2021/09/29 01:07:10;;;;;;;2.95;2.58;;;;;;;27.29;22.73;98720.94;5095721;28;20020;-83
2021/09/29 01:10:00;;;;;;;2.85;2.42;;;;;;;27.47;22.56;98726.94;5098168;28;20574;-83
2021/09/29 01:12:37;;;;;;;3.63;2.40;;;;;;;27.59;22.21;98714.97;5093098;28;20043;-82
2021/09/29 01:15:31;;;;;;;5.40;2.47;;;;;;;27.40;22.19;98716.66;5098499;28;20032;-82
2021/09/29 01:18:11;;;;;;;3.97;2.03;;;;;;;27.09;22.14;98714.59;5099290;28;20032;-83
2021/09/29 01:20:45;;;;;;;3.50;2.40;;;;;;;27.09;22.63;98711.78;5092630;28;20036;-83
2021/09/29 01:23:23;;;;;;;5.63;2.55;;;;;;;26.90;22.52;98704.19;5104769;28;22278;-83
2021/09/29 01:25:57;;;;;;;5.95;2.08;;;;;;;27.08;22.26;98705.34;5074251;28;20027;-83
2021/09/29 01:28:49;;;;;;;2.35;1.92;;;;;;;27.22;22.13;98704.19;5095272;28;20032;-83
2021/09/29 01:31:16;;;;;;;3.35;2.15;;;;;;;27.42;21.67;98708.53;5102172;28;20110;-84
2021/09/29 01:33:43;;;;;;;4.63;2.15;;;;;;;27.38;21.74;98704.22;5096310;28;20401;-85
2021/09/29 01:36:09;;;;;;;2.45;2.15;;;;;;;27.26;22.00;98696.44;5096587;28;20035;-85
2021/09/29 01:38:38;;;;;;;4.03;2.22;;;;;;;27.01;22.38;98699.88;5095291;28;20036;-85
2021/09/29 01:41:05;;;;;;;4.38;2.17;;;;;;;26.87;22.24;98693.78;5109268;27;20025;-84
2021/09/29 01:43:32;;;;;;;2.80;2.03;;;;;;;26.63;22.67;98691.06;5102640;28;20059;-84
2021/09/29 01:45:58;;;;;;;7.72;2.90;;;;;;;26.29;23.34;98689.84;5091008;28;20036;-84
2021/09/29 01:48:24;;;;;;;7.22;2.45;;;;;;;26.23;23.21;98678.31;5100395;28;20483;-85
2021/09/29 01:50:55;;;;;;;2.55;1.92;;;;;;;26.39;22.42;98677.56;5096058;28;20027;-84
2021/09/29 01:53:27;;;;;;;2.78;2.08;;;;;;;26.76;21.60;98673.53;5094242;28;20055;-84
2021/09/29 01:55:53;;;;;;;2.97;2.05;;;;;;;26.84;21.89;98667.28;5090917;28;20483;-84
2021/09/29 01:58:20;;;;;;;3.47;2.08;;;;;;;26.91;21.93;98669.91;5093305;28;20402;-84
2021/09/29 02:00:46;;;;;;;3.03;2.03;;;;;;;26.95;21.76;98667.03;5087638;28;20031;-84
2021/09/29 02:03:18;;;;;;;3.53;2.28;;;;;;;26.76;22.05;98665.06;5094580;28;20483;-85
2021/09/29 02:05:44;;;;;;;3.58;3.03;;;;;;;26.37;22.67;98652.63;5088875;28;20033;-84
2021/09/29 02:08:10;;;;;;;3.97;3.05;;;;;;;26.00;23.78;98656.63;5093666;28;20118;-84
2021/09/29 02:10:36;;;;;;;3.97;2.60;;;;;;;26.15;22.94;98653.53;5088398;28;20036;-84
2021/09/29 02:13:03;;;;;;;3.25;2.38;;;;;;;25.85;23.45;98648.91;5091463;28;20038;-84
2021/09/29 02:15:29;;;;;;;9.25;3.63;;;;;;;25.09;24.76;98653.47;5091635;28;20467;-84
2021/09/29 02:17:55;;;;;;;4.78;2.78;;;;;;;24.85;24.91;98651.91;5092256;28;20545;-84
2021/09/29 02:20:21;;;;;;;3.75;3.30;;;;;;;23.64;26.68;98643.44;5092041;28;20523;-84
2021/09/29 02:22:47;;;;;;;4.97;3.72;;;;;;;23.99;26.40;98659.84;5120550;27;20032;-85
2021/09/29 02:25:13;;;;;;;5.38;3.67;;;;;;;24.44;26.00;98645.66;5089467;28;20032;-84
2021/09/29 02:27:40;;;;;;;8.70;4.60;;;;;;;24.30;26.82;98651.47;5091898;28;20525;-84
2021/09/29 02:30:08;;;;;;;5.32;3.70;;;;;;;23.88;26.62;98650.78;5092279;28;20129;-85
2021/09/29 02:32:35;;;;;;;6.32;4.75;;;;;;;24.28;26.38;98649.09;5086137;28;20078;-84
2021/09/29 02:35:01;;;;;;;7.28;5.13;;;;;;;24.13;26.50;98653.31;5091471;28;20036;-85
2021/09/29 02:37:27;;;;;;;6.15;3.70;;;;;;;24.54;26.63;98651.13;5091588;28;20040;-86
2021/09/29 02:39:53;;;;;;;4.75;3.55;;;;;;;25.60;24.53;98646.56;5090698;28;20537;-84
2021/09/29 02:42:19;;;;;;;3.88;2.60;;;;;;;26.23;23.33;98644.53;5097781;28;20036;-84
2021/09/29 02:44:45;;;;;;;5.47;3.13;;;;;;;26.57;22.83;98649.78;5092727;28;20501;-84
2021/09/29 02:47:11;;;;;;;4.22;2.85;;;;;;;26.87;22.10;98648.69;5093441;28;20502;-84
2021/09/29 02:49:37;;;;;;;4.40;3.20;;;;;;;27.17;21.45;98651.16;5092381;28;20032;-85
2021/09/29 02:52:04;;;;;;;4.20;3.30;;;;;;;27.25;21.35;98652.56;5093492;28;20040;-84
2021/09/29 02:54:30;;;;;;;4.70;2.90;;;;;;;27.40;21.10;98653.81;5085679;28;20492;-85
2021/09/29 02:56:56;;;;;;;3.58;3.22;;;;;;;27.48;21.35;98649.56;5086056;28;20415;-84
2021/09/29 02:59:23;;;;;;;3.63;2.83;;;;;;;27.09;21.34;98650.56;5088637;28;20040;-84
2021/09/29 03:01:49;;;;;;;7.30;2.88;;;;;;;26.71;21.54;98652.28;5091407;28;20093;-84
2021/09/29 03:04:15;;;;;;;3.83;2.95;;;;;;;26.50;21.96;98656.38;5090517;28;20039;-85
2021/09/29 03:06:41;;;;;;;3.53;2.85;;;;;;;26.77;21.71;98655.41;5092688;28;20103;-84
2021/09/29 03:09:07;;;;;;;4.18;3.17;;;;;;;26.55;22.13;98653.03;5080877;28;20027;-85
2021/09/29 03:11:34;;;;;;;4.40;3.25;;;;;;;26.16;22.40;98641.88;5091618;28;20028;-85
2021/09/29 03:14:00;;;;;;;3.88;3.35;;;;;;;25.79;22.75;98648.59;5092531;28;20040;-84
2021/09/29 03:16:26;;;;;;;3.28;2.50;;;;;;;25.36;23.22;98645.00;5088707;28;20058;-85
2021/09/29 03:18:54;;;;;;;6.93;4.05;;;;;;;25.43;23.65;98650.50;5090709;28;20032;-84
2021/09/29 03:21:20;;;;;;;5.03;3.35;;;;;;;25.51;23.76;98651.19;5089939;28;20016;-84
2021/09/29 03:23:46;;;;;;;9.32;5.68;;;;;;;25.35;24.08;98643.41;5093225;28;20064;-84
2021/09/29 03:26:13;;;;;;;4.75;3.70;;;;;;;25.68;23.53;98644.41;5090925;28;20059;-84
2021/09/29 03:28:39;;;;;;;6.25;4.95;;;;;;;25.66;23.82;98638.44;5087093;28;20032;-84
2021/09/29 03:31:05;;;;;;;7.63;5.13;;;;;;;24.69;25.04;98648.91;5092813;28;20396;-84
2021/09/29 03:33:31;;;;;;;6.50;4.43;;;;;;;24.40;25.46;98644.91;5097251;28;20028;-84
2021/09/29 03:35:57;;;;;;;6.50;4.07;;;;;;;24.87;24.86;98649.44;5091457;28;20032;-84
2021/09/29 03:38:23;;;;;;;5.30;3.53;;;;;;;25.13;24.43;98640.19;5088822;28;20107;-85
2021/09/29 03:40:49;;;;;;;6.38;4.72;;;;;;;25.80;23.77;98643.78;5075315;28;20056;-84
2021/09/29 03:43:18;;;;;;;8.27;5.53;;;;;;;25.94;23.71;98637.88;5090732;28;20032;-84
2021/09/29 03:45:45;;;;;;;5.95;5.32;;;;;;;25.26;24.28;98634.72;5091093;28;20494;-84
2021/09/29 03:48:11;;;;;;;6.78;4.30;;;;;;;25.07;24.89;98621.41;5085504;28;20032;-84
2021/09/29 03:50:37;;;;;;;5.63;3.97;;;;;;;24.64;25.70;98629.72;5089355;28;20160;-84
2021/09/29 03:53:03;;;;;;;6.07;3.90;;;;;;;24.67;26.14;98638.09;5095308;28;20039;-84
2021/09/29 03:55:29;;;;;;;8.65;5.93;;;;;;;24.14;26.96;98629.66;5089050;28;20047;-85
2021/09/29 03:57:55;;;;;;;8.02;4.43;;;;;;;24.41;26.73;98635.31;5088229;28;20036;-84
2021/09/29 04:00:21;;;;;;;11.45;7.30;;;;;;;23.95;26.90;98627.47;5098239;28;20039;-85
2021/09/29 04:02:47;;;;;;;11.32;8.48;;;;;;;23.65;27.54;98628.22;5080343;28;20399;-86
2021/09/29 04:05:13;;;;;;;8.10;5.68;;;;;;;23.96;27.25;98632.66;5081727;28;20043;-84
2021/09/29 04:07:40;;;;;;;8.63;6.80;;;;;;;23.11;28.60;98624.34;5081647;28;20024;-84
2021/09/29 04:10:08;;;;;;;6.20;5.25;;;;;;;23.46;28.39;98614.03;5089039;28;20043;-85
2021/09/29 04:12:35;;;;;;;6.57;5.03;;;;;;;23.74;27.79;98611.69;5089466;28;20423;-84
2021/09/29 04:15:01;;;;;;;11.35;7.78;;;;;;;23.09;28.46;98603.56;5089581;28;20032;-84
2021/09/29 04:17:27;;;;;;;6.85;5.10;;;;;;;23.16;29.16;98609.91;5089550;28;20032;-84
2021/09/29 04:19:53;;;;;;;7.00;5.47;;;;;;;24.22;27.38;98603.09;5088619;28;20035;-84
2021/09/29 04:22:20;;;;;;;7.65;5.47;;;;;;;25.19;25.94;98601.13;5085515;28;20024;-85
2021/09/29 04:24:47;;;;;;;9.00;6.43;;;;;;;25.24;25.50;98604.25;5090338;28;20302;-84
2021/09/29 04:27:14;;;;;;;7.40;5.28;;;;;;;24.61;26.70;98599.69;5090825;28;20032;-84
2021/09/29 04:29:41;;;;;;;8.48;5.30;;;;;;;24.09;27.35;98601.25;5092703;28;20048;-85
2021/09/29 04:32:08;;;;;;;10.65;6.78;;;;;;;24.17;27.17;98603.56;5087639;28;20141;-84
2021/09/29 04:34:35;;;;;;;8.68;5.82;;;;;;;25.04;26.16;98589.34;5086325;28;20040;-87
2021/09/29 04:37:02;;;;;;;8.20;5.85;;;;;;;25.26;25.76;98596.19;5087529;28;20024;-85
2021/09/29 04:39:28;;;;;;;7.85;6.10;;;;;;;24.72;26.64;98592.69;5087881;28;20082;-86
2021/09/29 04:41:54;;;;;;;7.63;6.03;;;;;;;24.30;26.80;98598.16;5087872;28;20028;-85
2021/09/29 04:44:20;;;;;;;7.32;5.22;;;;;;;24.34;27.32;98596.09;5087465;28;20032;-85
2021/09/29 04:46:46;;;;;;;10.95;7.32;;;;;;;23.68;27.99;98596.56;5086827;28;20070;-85
2021/09/29 04:49:12;;;;;;;7.97;5.32;;;;;;;22.88;29.52;98604.56;5091746;28;20032;-85
2021/09/29 04:51:39;;;;;;;8.32;5.43;;;;;;;23.62;28.47;98603.81;5089037;28;20051;-86
2021/09/29 04:54:05;;;;;;;6.43;4.65;;;;;;;24.52;27.36;98602.25;5090826;28;20446;-87
2021/09/29 04:56:31;;;;;;;6.53;5.38;;;;;;;24.16;27.34;98599.16;5083234;28;20488;-87
2021/09/29 04:58:57;;;;;;;8.80;5.10;;;;;;;24.26;27.58;98606.63;5078827;28;20044;-87
2021/09/29 05:01:28;;;;;;;7.60;5.80;;;;;;;23.32;28.99;98606.53;5063123;28;20043;-86
2021/09/29 05:03:55;;;;;;;7.15;5.65;;;;;;;24.28;27.33;98606.19;5073322;28;20044;-86
2021/09/29 05:06:21;;;;;;;4.50;3.97;;;;;;;23.19;28.76;98603.47;5069600;28;20037;-86
2021/09/29 05:08:50;;;;;;;6.70;5.28;;;;;;;22.87;29.39;98602.19;5073782;28;20025;-86
2021/09/29 05:11:22;;;;;;;7.55;5.68;;;;;;;23.21;29.18;98598.25;5074538;28;20032;-85
2021/09/29 05:13:48;;;;;;;9.18;6.65;;;;;;;23.33;28.66;98599.72;5072188;28;20048;-84
2021/09/29 05:16:15;;;;;;;9.88;5.00;;;;;;;24.58;27.25;98586.50;5068423;28;20037;-85
2021/09/29 05:18:41;;;;;;;9.13;6.00;;;;;;;24.59;27.10;98582.47;5074824;28;20028;-85
2021/09/29 05:21:08;;;;;;;9.55;6.40;;;;;;;23.62;28.16;98592.63;5072690;28;20032;-85
2021/09/29 05:23:34;;;;;;;6.95;5.00;;;;;;;24.81;27.10;98591.38;5073114;28;20032;-86
2021/09/29 05:26:00;;;;;;;7.68;4.80;;;;;;;25.00;26.98;98590.63;5074042;28;20115;-85
2021/09/29 05:28:33;;;;;;;16.00;4.95;;;;;;;25.30;26.08;98591.28;5068215;28;20036;-85
2021/09/29 05:30:59;;;;;;;8.10;5.85;;;;;;;25.51;26.01;98587.28;5071555;28;20054;-86
2021/09/29 05:33:26;;;;;;;10.27;6.05;;;;;;;24.85;26.91;98590.09;5074258;28;20040;-86
2021/09/29 05:35:52;;;;;;;11.27;5.55;;;;;;;24.96;26.74;98584.28;5067458;28;20459;-85
2021/09/29 05:38:18;;;;;;;6.03;4.65;;;;;;;25.63;26.02;98589.47;5056114;28;20133;-85
2021/09/29 05:40:45;;;;;;;9.77;7.00;;;;;;;25.29;26.42;98584.09;5074987;28;20139;-84
2021/09/29 05:43:11;;;;;;;11.27;5.07;;;;;;;25.66;26.09;98582.97;5072465;28;20507;-85
2021/09/29 05:45:37;;;;;;;7.93;5.05;;;;;;;26.07;25.66;98588.13;5071059;28;20110;-85
2021/09/29 05:48:03;;;;;;;6.18;4.32;;;;;;;26.53;25.20;98589.94;5075396;28;20082;-85
2021/09/29 05:50:30;;;;;;;9.82;6.28;;;;;;;26.81;24.38;98588.47;5056688;28;20089;-85
2021/09/29 05:52:56;;;;;;;10.60;6.28;;;;;;;26.18;25.36;98594.38;5072184;28;20048;-87
2021/09/29 05:55:22;;;;;;;8.80;5.13;;;;;;;26.52;25.19;98600.41;5055381;28;20037;-87
2021/09/29 05:57:48;;;;;;;5.80;4.28;;;;;;;26.87;24.64;98595.16;5056952;28;20028;-87
2021/09/29 06:00:15;;;;;;;9.10;5.65;;;;;;;26.64;24.74;98596.09;5074820;28;20028;-86
2021/09/29 06:02:41;;;;;;;11.70;7.22;;;;;;;25.95;25.59;98592.41;5074311;28;20431;-86
2021/09/29 06:05:07;;;;;;;9.63;5.28;;;;;;;26.52;25.39;98594.75;5074059;28;20161;-86
2021/09/29 06:07:33;;;;;;;11.48;6.32;;;;;;;25.98;25.86;98585.91;5072232;28;20044;-86
2021/09/29 06:10:00;;;;;;;12.77;7.18;;;;;;;25.01;27.06;98593.03;5074544;28;20031;-87
2021/09/29 06:12:26;;;;;;;14.65;6.47;;;;;;;24.76;27.97;98595.47;5074207;28;20036;-86
2021/09/29 06:14:54;;;;;;;10.55;6.20;;;;;;;25.86;26.62;98591.41;5055169;28;20032;-86
2021/09/29 06:17:25;;;;;;;9.05;4.88;;;;;;;26.17;26.35;98587.13;5074476;28;20037;-85
2021/09/29 06:19:52;;;;;;;6.60;4.68;;;;;;;26.38;25.88;98583.84;5073600;28;20056;-86
2021/09/29 06:22:19;;;;;;;10.30;5.57;;;;;;;26.62;25.64;98599.38;5074057;28;20032;-86
2021/09/29 06:24:45;;;;;;;9.43;4.80;;;;;;;26.71;25.67;98593.91;5069339;28;20037;-86
2021/09/29 06:27:11;;;;;;;9.05;6.13;;;;;;;26.63;25.50;98600.13;5068165;28;20590;-86
2021/09/29 06:29:38;;;;;;;8.82;5.60;;;;;;;25.66;26.72;98591.41;5057418;28;20392;-86
2021/09/29 06:32:04;;;;;;;8.07;5.07;;;;;;;25.59;26.87;98602.81;5073896;28;20055;-86
2021/09/29 06:34:30;;;;;;;8.85;5.13;;;;;;;26.00;26.52;98602.34;5072362;28;20039;-86
2021/09/29 06:36:57;;;;;;;8.82;5.65;;;;;;;24.93;27.67;98607.59;5086489;28;20449;-86
2021/09/29 06:39:23;;;;;;;8.40;6.03;;;;;;;24.87;27.74;98609.31;5073011;28;20057;-86
2021/09/29 06:41:49;;;;;;;11.65;6.85;;;;;;;24.60;28.05;98609.31;5074428;28;20028;-86
2021/09/29 06:44:16;;;;;;;8.80;6.53;;;;;;;24.09;29.38;98601.25;5074290;28;20107;-86
2021/09/29 06:46:42;;;;;;;8.60;5.32;;;;;;;25.03;28.22;98603.81;5073745;28;20037;-86
2021/09/29 06:49:08;;;;;;;8.68;5.10;;;;;;;25.82;26.97;98605.56;5072267;28;20075;-86
2021/09/29 06:51:35;;;;;;;11.60;6.22;;;;;;;25.73;27.08;98608.16;5071355;28;20032;-86
2021/09/29 06:54:01;;;;;;;8.20;5.80;;;;;;;24.42;28.49;98617.22;5071252;28;20507;-86
2021/09/29 06:56:28;;;;;;;9.48;6.78;;;;;;;23.42;29.80;98621.69;5060937;28;20523;-86
2021/09/29 06:58:54;;;;;;;10.30;6.80;;;;;;;23.05;31.27;98616.81;5088412;28;20028;-86
2021/09/29 07:01:20;;;;;;;7.10;4.93;;;;;;;24.74;28.76;98623.13;5091953;28;20035;-86
2021/09/29 07:03:47;;;;;;;9.93;6.40;;;;;;;24.63;28.23;98617.69;5093707;28;20115;-86
2021/09/29 07:06:13;;;;;;;8.80;5.00;;;;;;;25.78;27.28;98609.66;5093666;28;20067;-87
2021/09/29 07:08:40;;;;;;;10.75;5.72;;;;;;;25.91;26.70;98611.38;5092365;28;20032;-87
2021/09/29 07:11:06;;;;;;;7.93;5.28;;;;;;;26.22;25.86;98606.31;5096047;28;20065;-85
2021/09/29 07:13:33;;;;;;;8.02;5.63;;;;;;;25.94;26.28;98612.53;5090511;28;20032;-86
2021/09/29 07:15:59;;;;;;;8.02;5.97;;;;;;;25.27;28.03;98616.66;5089726;28;20111;-86
2021/09/29 07:18:32;;;;;;;10.48;6.45;;;;;;;25.80;26.77;98621.28;5083774;28;20028;-86
2021/09/29 07:21:01;;;;;;;6.85;4.97;;;;;;;26.07;26.89;98617.06;5088525;28;20440;-86
2021/09/29 07:23:27;;;;;;;8.30;5.38;;;;;;;26.07;26.91;98616.25;5085602;28;20090;-86
2021/09/29 07:25:53;;;;;;;11.50;8.50;;;;;;;25.02;27.72;98622.69;5084548;28;20043;-86
2021/09/29 07:28:19;;;;;;;7.95;4.72;;;;;;;24.80;28.57;98640.34;5086076;28;20028;-86
2021/09/29 07:30:46;;;;;;;9.38;6.60;;;;;;;24.18;29.60;98638.81;5090120;28;20035;-86
2021/09/29 07:33:14;;;;;;;7.88;4.28;;;;;;;25.72;27.59;98631.88;5089606;28;20479;-86
2021/09/29 07:35:41;;;;;;;9.50;6.53;;;;;;;26.44;26.33;98632.00;5081772;28;20055;-86
2021/09/29 07:38:08;;;;;;;8.07;5.10;;;;;;;26.51;26.63;98626.97;5079142;28;20043;-86
2021/09/29 07:40:34;;;;;;;9.25;6.40;;;;;;;26.39;26.48;98636.13;5084468;28;20028;-85
2021/09/29 07:43:01;;;;;;;7.13;5.35;;;;;;;26.91;25.77;98633.28;5082332;28;20091;-85
2021/09/29 07:45:27;;;;;;;8.52;5.10;;;;;;;26.71;26.33;98635.38;5088730;28;20587;-85
2021/09/29 07:47:53;;;;;;;6.22;4.47;;;;;;;27.40;25.47;98642.53;5094143;28;20076;-85
2021/09/29 07:50:21;;;;;;;9.73;5.55;;;;;;;27.78;24.53;98637.84;5082224;28;20032;-85
2021/09/29 07:52:47;;;;;;;11.93;6.72;;;;;;;27.32;25.33;98632.66;5087184;28;20605;-85
2021/09/29 07:55:14;;;;;;;8.88;6.53;;;;;;;25.42;27.62;98640.47;5088486;28;20500;-85
2021/09/29 07:57:42;;;;;;;9.23;5.63;;;;;;;25.79;27.56;98630.94;5090573;28;20028;-85
2021/09/29 08:00:10;;;;;;;8.88;5.93;;;;;;;24.89;28.79;98634.97;5089053;28;20039;-85
2021/09/29 08:02:36;;;;;;;11.38;8.18;;;;;;;22.71;32.08;98627.13;5084910;28;20031;-85
2021/09/29 08:05:04;;;;;;;10.77;6.43;;;;;;;23.83;30.78;98630.81;5086460;28;20036;-85
2021/09/29 08:07:30;;;;;;;10.23;7.45;;;;;;;22.88;31.99;98631.75;5085566;28;20028;-87
2021/09/29 08:09:56;;;;;;;7.65;5.93;;;;;;;24.68;30.25;98633.28;5094102;28;20038;-85
2021/09/29 08:12:23;;;;;;;10.00;6.35;;;;;;;25.95;27.37;98628.97;5102001;28;20028;-85
2021/09/29 08:14:49;;;;;;;7.88;5.85;;;;;;;26.88;26.68;98630.56;5104583;28;20032;-86
2021/09/29 08:17:15;;;;;;;6.43;4.63;;;;;;;26.93;26.51;98630.84;5093143;28;20024;-85
2021/09/29 08:19:41;;;;;;;7.22;5.70;;;;;;;26.71;26.76;98636.16;5088463;28;20024;-86
2021/09/29 08:22:09;;;;;;;6.93;5.50;;;;;;;27.19;26.67;98626.94;5083634;28;20111;-85
2021/09/29 08:29:56;;;;;;;7.18;5.78;;;;;;;27.77;25.85;98629.84;5066296;28;20507;-86
2021/09/29 08:32:26;;;;;;;6.88;5.50;;;;;;;27.97;25.53;98617.16;5085309;28;20538;-86
2021/09/29 08:35:06;;;;;;;7.55;4.80;;;;;;;28.19;25.62;98620.16;5088297;28;20040;-87
2021/09/29 08:37:45;;;;;;;7.18;4.75;;;;;;;28.78;25.18;98625.19;5095784;28;20035;-87
2021/09/29 08:40:28;;;;;;;7.13;4.75;;;;;;;28.89;25.38;98634.13;5091708;28;20410;-86
2021/09/29 08:45:50;;;;;;;7.28;5.95;;;;;;;26.93;26.79;98624.41;5095121;28;20068;-86
2021/09/29 09:14:45;;;;;;;7.72;6.07;;;;;;;24.42;31.57;98626.44;5077816;28;20476;-86
2021/09/29 09:17:43;;;;;;;9.13;5.65;;;;;;;29.65;24.37;98608.47;5072445;28;20040;-86
2021/09/29 09:20:14;;;;;;;9.38;5.88;;;;;;;29.54;24.58;98599.59;5075976;28;20035;-86
2021/09/29 09:22:40;;;;;;;11.68;6.72;;;;;;;29.89;24.67;98598.31;5075938;28;20041;-87
2021/09/29 09:25:07;;;;;;;9.98;7.03;;;;;;;29.09;24.73;98608.41;5075064;28;20047;-86
2021/09/29 09:27:51;;;;;;;9.32;7.10;;;;;;;28.13;26.47;98609.84;5073977;28;20055;-86
2021/09/29 09:30:35;;;;;;;7.47;5.63;;;;;;;28.42;27.72;98604.94;5074077;28;20037;-86
2021/09/29 09:33:02;;;;;;;8.32;6.15;;;;;;;28.89;26.78;98600.19;5074938;28;20052;-87
2021/09/29 09:35:42;;;;;;;7.82;6.20;;;;;;;27.91;27.08;98609.69;5074969;28;20031;-86
2021/09/29 09:38:20;;;;;;;7.97;7.03;;;;;;;28.21;27.05;98608.41;5053216;28;20059;-86
2021/09/29 09:40:56;;;;;;;6.15;4.63;;;;;;;29.66;24.97;98604.41;5072582;28;20403;-86
2021/09/29 09:43:25;;;;;;;9.52;6.10;;;;;;;29.73;25.16;98607.78;5073659;28;20047;-86
2021/09/29 09:45:51;;;;;;;7.85;6.13;;;;;;;28.30;27.62;98611.34;5072547;28;20048;-86
2021/09/29 09:48:26;;;;;;;7.53;5.28;;;;;;;28.81;26.33;98607.31;5071353;28;20035;-86
2021/09/29 09:51:02;;;;;;;9.02;7.03;;;;;;;29.67;25.55;98589.00;5072358;28;20061;-86
2021/09/29 09:53:28;;;;;;;8.00;6.43;;;;;;;29.35;24.94;98604.28;5070922;28;20086;-86
2021/09/29 09:55:54;;;;;;;7.55;6.45;;;;;;;29.34;25.62;98599.88;5075471;28;20512;-87
2021/09/29 09:58:21;;;;;;;8.15;5.72;;;;;;;29.54;25.38;98594.72;5075747;28;20020;-87
2021/09/29 10:00:47;;;;;;;10.88;7.97;;;;;;;27.69;27.43;98592.56;5073140;28;20043;-86
2021/09/29 10:03:14;;;;;;;10.35;6.30;;;;;;;28.86;27.09;98595.44;5055232;28;20420;-87
2021/09/29 10:05:43;;;;;;;8.05;6.35;;;;;;;29.37;25.97;98582.78;5055804;28;20074;-86
2021/09/29 10:08:13;;;;;;;8.60;6.20;;;;;;;30.08;24.96;98589.47;5072374;28;20032;-86
2021/09/29 10:10:57;;;;;;;8.25;6.10;;;;;;;29.48;25.92;98584.47;5073928;28;20111;-86
2021/09/29 10:27:53;;;;;;;10.13;7.55;;;;;;;27.81;29.08;98589.00;5073530;28;20519;-85
2021/09/29 10:30:44;;;;;;;7.35;5.70;;;;;;;29.35;26.31;98578.84;5068940;28;20028;-86
2021/09/29 10:33:21;;;;;;;11.77;7.50;;;;;;;27.20;28.86;98582.63;5068296;28;20484;-87
2021/09/29 10:36:21;;;;;;;14.25;9.73;;;;;;;25.46;32.02;98578.56;5069320;28;20036;-86
2021/09/29 10:44:31;;;;;;;10.70;7.13;;;;;;;29.80;26.55;98567.13;5069766;28;20036;-86
2021/09/29 10:47:27;;;;;;;9.27;7.05;;;;;;;29.73;26.42;98564.53;5064076;28;20548;-87
2021/09/29 10:52:55;;;;;;;;;;;;;;;28.00;28.90;98571.13;5064375;28;20111;-86
2021/09/29 11:27:25;;;;;;;9.23;7.07;;;;;;;30.19;26.89;98552.25;5104714;28;20426;-86
2021/09/29 11:29:40;;;;;;;8.93;6.55;;;;;;;30.61;25.97;98542.06;5084267;28;20063;-86
2021/09/29 11:32:47;;;;;;;7.82;6.45;;;;;;;30.84;26.16;98540.69;5087286;28;20028;-86
2021/09/29 11:38:31;;;;;;;11.27;7.30;;;;;;;28.87;29.34;98540.47;5061524;28;20048;-86
2021/09/29 12:08:45;;;;;;;12.32;9.27;;;;;;;28.48;29.84;98533.28;5065580;28;20408;-86
2021/09/29 12:11:27;;;;;;;17.73;11.25;;;;;;;26.72;32.42;98530.69;5067215;28;20032;-85
2021/09/29 12:14:01;;;;;;;12.07;8.65;;;;;;;29.15;28.80;98516.88;5060666;28;20162;-85
2021/09/29 12:16:35;;;;;;;13.57;9.23;;;;;;;28.74;29.26;98519.94;5065524;28;20040;-85
2021/09/29 12:19:07;;;;;;;14.23;9.35;;;;;;;27.94;30.83;98513.59;5063094;28;20033;-84
2021/09/29 12:24:30;;;;;;;13.48;8.88;;;;;;;26.73;32.34;98518.19;5063498;28;20060;-84
2021/09/29 12:26:59;;;;;;;11.40;8.45;;;;;;;26.71;33.13;98515.03;5058012;28;20057;-83
2021/09/29 12:29:38;;;;;;;15.15;10.63;;;;;;;26.66;33.33;98517.56;5062600;28;20533;-84
2021/09/29 12:38:02;;;;;;;14.23;9.93;;;;;;;26.16;33.77;98523.66;5068253;28;20041;-85
2021/09/29 12:40:33;;;;;;;13.75;9.98;;;;;;;26.59;34.03;98517.75;5052190;28;20037;-84
2021/09/29 12:43:01;;;;;;;15.02;9.45;;;;;;;26.36;33.66;98515.91;5052771;28;20523;-83
2021/09/29 12:45:33;;;;;;;15.73;11.52;;;;;;;25.66;34.52;98523.91;5067849;28;20032;-83
2021/09/29 12:48:00;;;;;;;13.77;9.38;;;;;;;27.52;31.97;98525.34;5066505;28;20094;-84
2021/09/29 12:50:38;;;;;;;14.52;9.27;;;;;;;27.28;32.60;98522.00;5069820;28;20024;-83
2021/09/29 12:56:29;;;;;;;16.33;10.48;;;;;;;25.92;34.54;98522.94;5068855;28;20496;-84
2021/09/29 12:58:36;;;;;;;12.82;9.98;;;;;;;26.95;32.92;98521.28;5072222;28;20396;-83
2021/09/29 13:01:02;;;;;;;15.70;10.15;;;;;;;26.07;34.47;98521.38;5086940;28;20514;-83
2021/09/29 13:03:28;;;;;;;15.35;10.38;;;;;;;25.68;35.32;98518.66;5087523;28;20078;-83
2021/09/29 13:05:57;;;;;;;14.13;10.15;;;;;;;25.29;35.80;98524.25;5070530;28;20384;-84
2021/09/29 13:08:24;;;;;;;12.32;9.25;;;;;;;26.43;33.81;98521.38;5084421;28;20029;-84
2021/09/29 13:10:50;;;;;;;10.05;8.60;;;;;;;25.97;34.67;98524.44;5085993;28;20024;-84
2021/09/29 13:13:17;;;;;;;11.48;8.57;;;;;;;26.78;33.17;98525.34;5065606;28;20024;-84
2021/09/29 13:15:50;;;;;;;9.55;7.25;;;;;;;27.49;32.32;98520.63;5087104;28;20028;-84
2021/09/29 13:18:43;;;;;;;14.00;8.68;;;;;;;26.74;33.71;98525.41;5081894;28;20021;-84
2021/09/29 13:21:16;;;;;;;14.38;7.63;;;;;;;26.02;35.44;98521.91;5089783;28;20036;-84
2021/09/29 13:23:56;;;;;;;11.55;7.60;;;;;;;26.00;34.96;98521.53;5088158;28;20024;-84
2021/09/29 13:26:39;;;;;;;11.20;8.45;;;;;;;25.96;34.70;98517.22;5097214;28;20126;-84
2021/09/29 13:37:19;;;;;;;12.35;8.55;;;;;;;26.08;34.48;98511.72;5086079;28;20105;-84
2021/09/29 13:39:45;;;;;;;10.05;7.38;;;;;;;27.54;32.20;98515.19;5091664;28;20028;-84
2021/09/29 13:42:12;;;;;;;11.50;8.98;;;;;;;26.71;33.12;98511.41;5081890;28;20480;-84
2021/09/29 13:44:38;;;;;;;11.45;7.50;;;;;;;27.11;32.87;98524.06;5073884;28;20039;-84
2021/09/29 13:47:04;;;;;;;10.88;8.10;;;;;;;26.47;33.75;98519.25;5091983;28;20058;-84
2021/09/29 13:49:31;;;;;;;11.98;8.52;;;;;;;26.41;34.12;98512.56;5085897;28;20029;-84
2021/09/29 13:51:58;;;;;;;11.15;7.97;;;;;;;26.20;34.41;98515.09;5091581;28;20384;-85
2021/09/29 13:54:25;;;;;;;10.70;7.78;;;;;;;26.61;33.58;98515.28;5104012;28;20056;-84
2021/09/29 13:59:44;;;;;;;10.55;6.63;;;;;;;28.28;31.42;98520.66;5095063;28;20460;-84
2021/09/29 14:29:47;;;;;;;6.55;4.13;;;;;;;33.60;23.64;98499.84;5099979;28;20537;-84